International Virtual Aviation Organisation

Russian Federation and Kazakhstan MCD

 

Карточка аэропорта UUDL

Внимание!
Информация на этой странице в стадии наполнения.
Если вы не увидели какой-то информации, или заметили неточность - пожалуйста сообщите нам!
Спасибо!
Команда RU-STAFF
Название аэропортаТуношна
Название аэропорта (англ.)Tunoshna
Превышение305 ft. (93 m.)
Координаты57°33.636', 40°9.438'
Высота перехода700m
Эшелон переходаFL050
Коды ответчика2750-2757
Зона ОрВДМосква РПИ (UUWV)
Данные METARUUDL 180700Z 22006MPS 9999 OVC040 02/M02 Q0993 R23/390138 NOSIG RMK QFE736
Проноз погоды (TAF)UUDL 180500Z 1806/1906 20005G10MPS 8000 -SN OVC016 TEMPO 1806/1811 3100 -SNRA BKN011 OVC016 BECMG 1811/1813 27003MPS TEMPO 1811/1903 1200 SNRA BKN011 OVC016
NOTAMshow/hide NOTAM
AWOS   TABLE

Информация о ВПП

ВПП Длина ВПП (м.) Покрытие Курс ВПП Частота ILS
053000Асфальтобетон52 
233000Асфальтобетон232110.5

Диспетчерские позиции

Позывной Наименование органа УВД Частота
UUDL_APPЯрославль - Подход120.300



Спутниковое изображение